EJA220 KSDL-KARR
Flight info
| Callsign | EJA220 |
|---|---|
| Flight time | N/A |
| Altitude | 37000 |
| Route | FTHLS6 ABQ DCT BDF DCT PLANO DCT |
| Aircraft | CL60/M-SBDE1E2E3FGHIJ1J4J5J7M3RWXYZ/LB1V1D1 |
Departure
| Time | 2026-05-08 14:02 |
|---|---|
| Airport | Scottsdale Airport (KSDL) |
Arrival
| Time | N/A |
|---|---|
| Airport | Aurora Municipal Airport (KARR) |
| Time | Latitude | Longitude | Altitude | Speed | Heading |
|---|---|---|---|---|---|
| 2026-05-08 13:49 | 33.62143 | -111.91547 | 1467 ft | 0 kts | 41° |
| 2026-05-08 13:56 | 33.62147 | -111.91531 | 1468 ft | 10 kts | 99° |
| 2026-05-08 13:56 | 33.62118 | -111.91444 | 1469 ft | 10 kts | 92° |
| 2026-05-08 13:57 | 33.62152 | -111.91371 | 1471 ft | 10 kts | 46° |
| 2026-05-08 13:57 | 33.62159 | -111.91325 | 1471 ft | 7 kts | 103° |
| 2026-05-08 13:57 | 33.62181 | -111.91291 | 1472 ft | 0 kts | 43° |
| 2026-05-08 13:57 | 33.62181 | -111.91292 | 1472 ft | 0 kts | 43° |
| 2026-05-08 13:58 | 33.62180 | -111.91292 | 1472 ft | 0 kts | 43° |
| 2026-05-08 13:58 | 33.62194 | -111.91276 | 1473 ft | 13 kts | 43° |
| 2026-05-08 13:59 | 33.62322 | -111.91129 | 1478 ft | 30 kts | 44° |
| 2026-05-08 13:59 | 33.62476 | -111.90950 | 1484 ft | 30 kts | 44° |
| 2026-05-08 13:59 | 33.62626 | -111.90778 | 1490 ft | 28 kts | 43° |
| 2026-05-08 13:59 | 33.62770 | -111.90613 | 1494 ft | 28 kts | 44° |
| 2026-05-08 14:00 | 33.62908 | -111.90453 | 1498 ft | 27 kts | 44° |
| 2026-05-08 14:00 | 33.63038 | -111.90304 | 1502 ft | 23 kts | 44° |
| 2026-05-08 14:00 | 33.63135 | -111.90187 | 1505 ft | 9 kts | 62° |
| 2026-05-08 14:00 | 33.63098 | -111.90127 | 1505 ft | 9 kts | 173° |
| 2026-05-08 14:01 | 33.63081 | -111.90137 | 1505 ft | 0 kts | 226° |
| 2026-05-08 14:01 | 33.62914 | -111.90331 | 1500 ft | 81 kts | 224° |
| 2026-05-08 14:01 | 33.62289 | -111.91053 | 1510 ft | 161 kts | 225° |
| 2026-05-08 14:01 | 33.61395 | -111.92091 | 1994 ft | 192 kts | 223° |
| 2026-05-08 14:02 | 33.60589 | -111.93448 | 2750 ft | 218 kts | 252° |
| 2026-05-08 14:02 | 33.60561 | -111.95306 | 3548 ft | 238 kts | 293° |
| 2026-05-08 14:02 | 33.61583 | -111.96864 | 4552 ft | 248 kts | 329° |
| 2026-05-08 14:02 | 33.63196 | -111.97617 | 5606 ft | 259 kts | 344° |
| 2026-05-08 14:03 | 33.64977 | -111.97863 | 6774 ft | 266 kts | 7° |
| 2026-05-08 14:03 | 33.66656 | -111.97015 | 7969 ft | 273 kts | 37° |
| 2026-05-08 14:03 | 33.67798 | -111.95194 | 9120 ft | 283 kts | 64° |
| 2026-05-08 14:03 | 33.68427 | -111.92969 | 10223 ft | 290 kts | 74° |
| 2026-05-08 14:04 | 33.68518 | -111.90551 | 11368 ft | 297 kts | 96° |
| 2026-05-08 14:04 | 33.68033 | -111.88143 | 12450 ft | 302 kts | 102° |
| 2026-05-08 14:04 | 33.67485 | -111.85738 | 13529 ft | 304 kts | 102° |
| 2026-05-08 14:04 | 33.66930 | -111.83270 | 14522 ft | 309 kts | 101° |
| 2026-05-08 14:05 | 33.66375 | -111.80801 | 15427 ft | 314 kts | 101° |
| 2026-05-08 14:05 | 33.65803 | -111.78256 | 16314 ft | 320 kts | 102° |
| 2026-05-08 14:05 | 33.65219 | -111.75663 | 17198 ft | 325 kts | 101° |
| 2026-05-08 14:05 | 33.64624 | -111.73023 | 18025 ft | 330 kts | 101° |
| 2026-05-08 14:06 | 33.64024 | -111.70360 | 18800 ft | 335 kts | 101° |
| 2026-05-08 14:06 | 33.63419 | -111.67676 | 19565 ft | 338 kts | 101° |
| 2026-05-08 14:06 | 33.62804 | -111.64947 | 20346 ft | 342 kts | 101° |
| 2026-05-08 14:06 | 33.62176 | -111.62169 | 21087 ft | 346 kts | 101° |
| 2026-05-08 14:07 | 33.61539 | -111.59356 | 21805 ft | 350 kts | 101° |
| 2026-05-08 14:07 | 33.60903 | -111.56546 | 22493 ft | 355 kts | 100° |
| 2026-05-08 14:07 | 33.60254 | -111.53682 | 23184 ft | 359 kts | 100° |
| 2026-05-08 14:07 | 33.59597 | -111.50781 | 23881 ft | 363 kts | 100° |
| 2026-05-08 14:08 | 33.58928 | -111.47838 | 24615 ft | 366 kts | 100° |
| 2026-05-08 14:08 | 33.58253 | -111.44869 | 25334 ft | 368 kts | 100° |
| 2026-05-08 14:08 | 33.57579 | -111.41911 | 26000 ft | 371 kts | 100° |
| 2026-05-08 14:08 | 33.56894 | -111.38905 | 26655 ft | 374 kts | 100° |
| 2026-05-08 14:09 | 33.56201 | -111.35867 | 27263 ft | 377 kts | 100° |
| 2026-05-08 14:09 | 33.55506 | -111.32822 | 27856 ft | 380 kts | 101° |
| 2026-05-08 14:09 | 33.54810 | -111.29781 | 28427 ft | 382 kts | 100° |
| 2026-05-08 14:09 | 33.54103 | -111.26691 | 28977 ft | 385 kts | 100° |
| 2026-05-08 14:10 | 33.53498 | -111.23556 | 29521 ft | 382 kts | 91° |
| 2026-05-08 14:10 | 33.53582 | -111.20445 | 30003 ft | 375 kts | 74° |
| 2026-05-08 14:10 | 33.54317 | -111.17451 | 30447 ft | 374 kts | 67° |
| 2026-05-08 14:10 | 33.55152 | -111.14497 | 30893 ft | 377 kts | 67° |
| 2026-05-08 14:11 | 33.55992 | -111.11501 | 31352 ft | 379 kts | 67° |
| 2026-05-08 14:11 | 33.56837 | -111.08481 | 31824 ft | 381 kts | 67° |
| 2026-05-08 14:11 | 33.57679 | -111.05467 | 32235 ft | 383 kts | 67° |
| 2026-05-08 14:11 | 33.58521 | -111.02457 | 32601 ft | 385 kts | 67° |
| 2026-05-08 14:12 | 33.59366 | -110.99429 | 32990 ft | 387 kts | 66° |
| 2026-05-08 14:12 | 33.60222 | -110.96358 | 33405 ft | 387 kts | 66° |
| 2026-05-08 14:12 | 33.61047 | -110.93394 | 33724 ft | 389 kts | 66° |
| 2026-05-08 14:12 | 33.61907 | -110.90307 | 34081 ft | 391 kts | 66° |
| 2026-05-08 14:13 | 33.62768 | -110.87209 | 34482 ft | 391 kts | 66° |
| 2026-05-08 14:13 | 33.63621 | -110.84135 | 34901 ft | 391 kts | 66° |
| 2026-05-08 14:13 | 33.64479 | -110.81039 | 35350 ft | 390 kts | 66° |
| 2026-05-08 14:13 | 33.65327 | -110.77976 | 35750 ft | 389 kts | 66° |
| 2026-05-08 14:14 | 33.66184 | -110.74884 | 36089 ft | 390 kts | 66° |
| 2026-05-08 14:14 | 33.67044 | -110.71769 | 36474 ft | 390 kts | 66° |
| 2026-05-08 14:14 | 33.67888 | -110.68716 | 36821 ft | 389 kts | 66° |
| 2026-05-08 14:14 | 33.68744 | -110.65613 | 37098 ft | 391 kts | 66° |
| 2026-05-08 14:15 | 33.69598 | -110.62521 | 37198 ft | 396 kts | 66° |
| 2026-05-08 14:15 | 33.71358 | -110.56139 | 37218 ft | 409 kts | 66° |
| 2026-05-08 14:16 | 33.73164 | -110.49568 | 37228 ft | 421 kts | 66° |
| 2026-05-08 14:16 | 33.75011 | -110.42827 | 37224 ft | 431 kts | 66° |
| 2026-05-08 14:17 | 33.76910 | -110.35880 | 37226 ft | 440 kts | 66° |
| 2026-05-08 14:17 | 33.78841 | -110.28804 | 37209 ft | 448 kts | 67° |
| 2026-05-08 14:18 | 33.80780 | -110.21678 | 37213 ft | 454 kts | 67° |
| 2026-05-08 14:18 | 33.82754 | -110.14400 | 37232 ft | 456 kts | 67° |
| 2026-05-08 14:19 | 33.84713 | -110.07156 | 37247 ft | 456 kts | 67° |
| 2026-05-08 14:19 | 33.86663 | -109.99934 | 37257 ft | 455 kts | 67° |
| 2026-05-08 14:20 | 33.88617 | -109.92675 | 37281 ft | 455 kts | 67° |
| 2026-05-08 14:20 | 33.90556 | -109.85454 | 37312 ft | 456 kts | 67° |
| 2026-05-08 14:21 | 33.92509 | -109.78162 | 37331 ft | 456 kts | 67° |
| 2026-05-08 14:21 | 33.94449 | -109.70904 | 37352 ft | 456 kts | 67° |
| 2026-05-08 14:22 | 33.96382 | -109.63650 | 37359 ft | 456 kts | 67° |
| 2026-05-08 14:22 | 33.98317 | -109.56371 | 37359 ft | 456 kts | 67° |
| 2026-05-08 14:23 | 34.00243 | -109.49107 | 37363 ft | 456 kts | 67° |
| 2026-05-08 14:23 | 34.02163 | -109.41845 | 37330 ft | 457 kts | 67° |
| 2026-05-08 14:24 | 34.04096 | -109.34514 | 37278 ft | 458 kts | 68° |
| 2026-05-08 14:24 | 34.06020 | -109.27201 | 37222 ft | 457 kts | 68° |
| 2026-05-08 14:25 | 34.07928 | -109.19926 | 37286 ft | 456 kts | 68° |
| 2026-05-08 14:25 | 34.09837 | -109.12634 | 37356 ft | 457 kts | 68° |
| 2026-05-08 14:26 | 34.11768 | -109.05237 | 37387 ft | 459 kts | 68° |
| 2026-05-08 14:26 | 34.13675 | -108.97908 | 37397 ft | 459 kts | 68° |
| 2026-05-08 14:27 | 34.15586 | -108.90546 | 37367 ft | 459 kts | 68° |
| 2026-05-08 14:27 | 34.17490 | -108.83190 | 37359 ft | 460 kts | 68° |
| 2026-05-08 14:28 | 34.19386 | -108.75842 | 37360 ft | 459 kts | 68° |
| 2026-05-08 14:28 | 34.21277 | -108.68499 | 37354 ft | 460 kts | 68° |
| 2026-05-08 14:29 | 34.23166 | -108.61137 | 37350 ft | 459 kts | 68° |
| 2026-05-08 14:29 | 34.25063 | -108.53728 | 37340 ft | 460 kts | 68° |
| 2026-05-08 14:30 | 34.26947 | -108.46348 | 37351 ft | 460 kts | 68° |
| 2026-05-08 14:30 | 34.28824 | -108.38974 | 37360 ft | 460 kts | 68° |
| 2026-05-08 14:31 | 34.30700 | -108.31589 | 37342 ft | 461 kts | 69° |
| 2026-05-08 14:31 | 34.32576 | -108.24176 | 37333 ft | 461 kts | 69° |
| 2026-05-08 14:32 | 34.35357 | -108.13152 | 37339 ft | 462 kts | 69° |
| 2026-05-08 14:32 | 34.37221 | -108.05743 | 37335 ft | 462 kts | 68° |
| 2026-05-08 14:33 | 34.39711 | -107.98943 | 37344 ft | 452 kts | 54° |
| 2026-05-08 14:33 | 34.43213 | -107.92614 | 37338 ft | 450 kts | 52° |
| 2026-05-08 14:34 | 34.46699 | -107.86356 | 37337 ft | 451 kts | 52° |
| 2026-05-08 14:34 | 34.50137 | -107.80178 | 37331 ft | 451 kts | 52° |
| 2026-05-08 14:35 | 34.53659 | -107.73843 | 37312 ft | 453 kts | 52° |
| 2026-05-08 14:35 | 34.57178 | -107.67506 | 37301 ft | 453 kts | 52° |
| 2026-05-08 14:36 | 34.60691 | -107.61168 | 37286 ft | 453 kts | 52° |
| 2026-05-08 14:36 | 34.64194 | -107.54840 | 37276 ft | 452 kts | 52° |
| 2026-05-08 14:37 | 34.67691 | -107.48513 | 37270 ft | 453 kts | 52° |
| 2026-05-08 14:37 | 34.71207 | -107.42143 | 37260 ft | 453 kts | 52° |
| 2026-05-08 14:38 | 34.74710 | -107.35784 | 37268 ft | 453 kts | 52° |
| 2026-05-08 14:38 | 34.78228 | -107.29388 | 37241 ft | 454 kts | 52° |
| 2026-05-08 14:39 | 34.81725 | -107.23018 | 37246 ft | 454 kts | 52° |
| 2026-05-08 14:39 | 34.85228 | -107.16628 | 37242 ft | 454 kts | 52° |
| 2026-05-08 14:40 | 34.88738 | -107.10214 | 37201 ft | 454 kts | 52° |
| 2026-05-08 14:40 | 34.92221 | -107.03836 | 37212 ft | 454 kts | 52° |
| 2026-05-08 14:41 | 34.95725 | -106.97409 | 37168 ft | 454 kts | 52° |
| 2026-05-08 14:41 | 34.99203 | -106.91018 | 37136 ft | 453 kts | 52° |
| 2026-05-08 14:42 | 35.02682 | -106.84614 | 37145 ft | 454 kts | 52° |
| 2026-05-08 14:42 | 35.06007 | -106.78095 | 37136 ft | 457 kts | 56° |
| 2026-05-08 14:43 | 35.09120 | -106.71305 | 37136 ft | 459 kts | 56° |
| 2026-05-08 14:43 | 35.12256 | -106.64469 | 37145 ft | 460 kts | 56° |
| 2026-05-08 14:44 | 35.15374 | -106.57665 | 37144 ft | 460 kts | 56° |
| 2026-05-08 14:44 | 35.18514 | -106.50804 | 37149 ft | 461 kts | 56° |
| 2026-05-08 14:45 | 35.21639 | -106.43967 | 37174 ft | 461 kts | 56° |
| 2026-05-08 14:45 | 35.24757 | -106.37135 | 37213 ft | 462 kts | 56° |
| 2026-05-08 14:46 | 35.27906 | -106.30223 | 37222 ft | 463 kts | 57° |
| 2026-05-08 14:46 | 35.31049 | -106.23313 | 37226 ft | 465 kts | 57° |
| 2026-05-08 14:47 | 35.34180 | -106.16415 | 37206 ft | 465 kts | 57° |
| 2026-05-08 14:47 | 35.37326 | -106.09471 | 37208 ft | 465 kts | 57° |
| 2026-05-08 14:48 | 35.40445 | -106.02576 | 37191 ft | 465 kts | 57° |
| 2026-05-08 14:48 | 35.43579 | -105.95631 | 37195 ft | 465 kts | 57° |
| 2026-05-08 14:49 | 35.46722 | -105.88657 | 37189 ft | 466 kts | 57° |
| 2026-05-08 14:49 | 35.49833 | -105.81737 | 37209 ft | 466 kts | 57° |
| 2026-05-08 14:50 | 35.52882 | -105.74940 | 37221 ft | 467 kts | 57° |
| 2026-05-08 14:50 | 35.55890 | -105.68220 | 37265 ft | 468 kts | 57° |
| 2026-05-08 14:51 | 35.59016 | -105.61227 | 37259 ft | 468 kts | 57° |
| 2026-05-08 14:51 | 35.62156 | -105.54189 | 37270 ft | 469 kts | 57° |
| 2026-05-08 14:52 | 35.66848 | -105.43642 | 37264 ft | 469 kts | 57° |
| 2026-05-08 14:53 | 35.69969 | -105.36606 | 37256 ft | 468 kts | 57° |
| 2026-05-08 14:53 | 35.73088 | -105.29562 | 37214 ft | 469 kts | 57° |
| 2026-05-08 14:54 | 35.76207 | -105.22504 | 37209 ft | 469 kts | 57° |
| 2026-05-08 14:54 | 35.79311 | -105.15464 | 37210 ft | 470 kts | 57° |
| 2026-05-08 14:55 | 35.82411 | -105.08418 | 37227 ft | 470 kts | 57° |
| 2026-05-08 14:55 | 35.85526 | -105.01324 | 37245 ft | 471 kts | 57° |
| 2026-05-08 14:56 | 35.88652 | -104.94190 | 37236 ft | 471 kts | 57° |
| 2026-05-08 14:56 | 35.91743 | -104.87119 | 37215 ft | 471 kts | 57° |
| 2026-05-08 14:57 | 35.94837 | -104.80028 | 37211 ft | 470 kts | 57° |
| 2026-05-08 14:57 | 35.97937 | -104.72908 | 37218 ft | 470 kts | 57° |
| 2026-05-08 14:58 | 36.01036 | -104.65775 | 37203 ft | 471 kts | 57° |
| 2026-05-08 14:58 | 36.04127 | -104.58644 | 37180 ft | 472 kts | 57° |
| 2026-05-08 14:59 | 36.07212 | -104.51514 | 37189 ft | 473 kts | 57° |
| 2026-05-08 14:59 | 36.11888 | -104.40677 | 37178 ft | 475 kts | 57° |
| 2026-05-08 15:00 | 36.15000 | -104.33444 | 37168 ft | 475 kts | 58° |
| 2026-05-08 15:00 | 36.18101 | -104.26220 | 37164 ft | 475 kts | 58° |
| 2026-05-08 15:01 | 36.21200 | -104.18985 | 37153 ft | 475 kts | 58° |
| 2026-05-08 15:01 | 36.24289 | -104.11759 | 37147 ft | 476 kts | 57° |
| 2026-05-08 15:02 | 36.27391 | -104.04485 | 37144 ft | 476 kts | 57° |
| 2026-05-08 15:02 | 36.30486 | -103.97213 | 37150 ft | 478 kts | 58° |
| 2026-05-08 15:03 | 36.33565 | -103.89961 | 37152 ft | 480 kts | 57° |
| 2026-05-08 15:03 | 36.36692 | -103.82580 | 37147 ft | 481 kts | 58° |
| 2026-05-08 15:04 | 36.39795 | -103.75239 | 37144 ft | 482 kts | 58° |
| 2026-05-08 15:04 | 36.42822 | -103.68062 | 37140 ft | 482 kts | 57° |
| 2026-05-08 15:05 | 36.45938 | -103.60657 | 37132 ft | 482 kts | 57° |
| 2026-05-08 15:05 | 36.49039 | -103.53271 | 37123 ft | 483 kts | 57° |
| 2026-05-08 15:06 | 36.52137 | -103.45875 | 37125 ft | 483 kts | 57° |
| 2026-05-08 15:06 | 36.55236 | -103.38461 | 37116 ft | 483 kts | 57° |
| 2026-05-08 15:07 | 36.58341 | -103.31014 | 37105 ft | 484 kts | 58° |
| 2026-05-08 15:07 | 36.61423 | -103.23607 | 37096 ft | 483 kts | 58° |
| 2026-05-08 15:08 | 36.63996 | -103.17407 | 37098 ft | 483 kts | 58° |
| 2026-05-08 15:08 | 36.67593 | -103.08724 | 37092 ft | 484 kts | 58° |
| 2026-05-08 15:09 | 36.70626 | -103.01383 | 37083 ft | 484 kts | 58° |
| 2026-05-08 15:09 | 36.73719 | -102.93881 | 37068 ft | 485 kts | 58° |
| 2026-05-08 15:10 | 36.76788 | -102.86416 | 37074 ft | 485 kts | 57° |
| 2026-05-08 15:10 | 36.79855 | -102.78943 | 37071 ft | 486 kts | 57° |
| 2026-05-08 15:11 | 36.82925 | -102.71440 | 37015 ft | 485 kts | 57° |
| 2026-05-08 15:11 | 36.85997 | -102.63923 | 37055 ft | 490 kts | 57° |
| 2026-05-08 15:12 | 36.88910 | -102.56776 | 37062 ft | 492 kts | 57° |
| 2026-05-08 15:12 | 36.92017 | -102.49130 | 37048 ft | 492 kts | 57° |
| 2026-05-08 15:13 | 36.95111 | -102.41500 | 37044 ft | 492 kts | 57° |
| 2026-05-08 15:13 | 36.98177 | -102.33920 | 37041 ft | 492 kts | 58° |
| 2026-05-08 15:14 | 37.01214 | -102.26394 | 37032 ft | 493 kts | 58° |
| 2026-05-08 15:14 | 37.04320 | -102.18679 | 37030 ft | 494 kts | 58° |
| 2026-05-08 15:15 | 37.07399 | -102.11013 | 37025 ft | 495 kts | 58° |
| 2026-05-08 15:15 | 37.10422 | -102.03467 | 37024 ft | 495 kts | 57° |
| 2026-05-08 15:16 | 37.13511 | -101.95738 | 37016 ft | 495 kts | 57° |
| 2026-05-08 15:16 | 37.16597 | -101.88000 | 37017 ft | 496 kts | 57° |
| 2026-05-08 15:17 | 37.19661 | -101.80296 | 37011 ft | 497 kts | 58° |
| 2026-05-08 15:17 | 37.22649 | -101.72768 | 37009 ft | 498 kts | 58° |
| 2026-05-08 15:18 | 37.25744 | -101.64949 | 36997 ft | 499 kts | 58° |
| 2026-05-08 15:18 | 37.28772 | -101.57278 | 36994 ft | 499 kts | 57° |
| 2026-05-08 15:19 | 37.31840 | -101.49487 | 36987 ft | 500 kts | 57° |
| 2026-05-08 15:19 | 37.34932 | -101.41620 | 36982 ft | 501 kts | 57° |
| 2026-05-08 15:20 | 37.38010 | -101.33764 | 36980 ft | 503 kts | 58° |
| 2026-05-08 15:20 | 37.41124 | -101.25799 | 36985 ft | 504 kts | 58° |
| 2026-05-08 15:21 | 37.44204 | -101.17897 | 36971 ft | 506 kts | 58° |
| 2026-05-08 15:21 | 37.47293 | -101.09952 | 36980 ft | 507 kts | 58° |
| 2026-05-08 15:22 | 37.50396 | -101.01955 | 36964 ft | 508 kts | 59° |
| 2026-05-08 15:22 | 37.53497 | -100.93938 | 36973 ft | 510 kts | 59° |
| 2026-05-08 15:23 | 37.56602 | -100.85891 | 36973 ft | 512 kts | 59° |
| 2026-05-08 15:23 | 37.59713 | -100.77807 | 36970 ft | 513 kts | 59° |
| 2026-05-08 15:24 | 37.62814 | -100.69727 | 36966 ft | 515 kts | 59° |
| 2026-05-08 15:24 | 37.65935 | -100.61574 | 36971 ft | 515 kts | 59° |
| 2026-05-08 15:25 | 37.68914 | -100.53772 | 36961 ft | 515 kts | 59° |
| 2026-05-08 15:25 | 37.71979 | -100.45724 | 36954 ft | 516 kts | 59° |
| 2026-05-08 15:26 | 37.75084 | -100.37551 | 36958 ft | 517 kts | 59° |
| 2026-05-08 15:26 | 37.78209 | -100.29301 | 36952 ft | 517 kts | 60° |
| 2026-05-08 15:27 | 37.81305 | -100.21104 | 36948 ft | 517 kts | 60° |
| 2026-05-08 15:27 | 37.84404 | -100.12878 | 36959 ft | 517 kts | 60° |
| 2026-05-08 15:28 | 37.87482 | -100.04686 | 36968 ft | 516 kts | 60° |
| 2026-05-08 15:28 | 37.90549 | -99.96501 | 36955 ft | 517 kts | 60° |
| 2026-05-08 15:29 | 37.93640 | -99.88232 | 36947 ft | 518 kts | 60° |
| 2026-05-08 15:29 | 37.96697 | -99.80027 | 36963 ft | 517 kts | 60° |
| 2026-05-08 15:30 | 37.99768 | -99.71767 | 36952 ft | 517 kts | 60° |
| 2026-05-08 15:30 | 38.02830 | -99.63506 | 36951 ft | 519 kts | 60° |
| 2026-05-08 15:31 | 38.05886 | -99.55238 | 36948 ft | 520 kts | 61° |
| 2026-05-08 15:31 | 38.08971 | -99.46872 | 36943 ft | 521 kts | 61° |
| 2026-05-08 15:32 | 38.12040 | -99.38522 | 36942 ft | 521 kts | 61° |
| 2026-05-08 15:32 | 38.15118 | -99.30125 | 36935 ft | 521 kts | 62° |
| 2026-05-08 15:33 | 38.18166 | -99.21787 | 36933 ft | 522 kts | 62° |
| 2026-05-08 15:33 | 38.21207 | -99.13445 | 36925 ft | 522 kts | 62° |
| 2026-05-08 15:34 | 38.24258 | -99.05051 | 36921 ft | 523 kts | 62° |
| 2026-05-08 15:34 | 38.27311 | -98.96630 | 36914 ft | 523 kts | 62° |
| 2026-05-08 15:35 | 38.30340 | -98.88248 | 36911 ft | 523 kts | 62° |
| 2026-05-08 15:35 | 38.33366 | -98.79855 | 36903 ft | 524 kts | 62° |
| 2026-05-08 15:36 | 38.35910 | -98.72778 | 36908 ft | 525 kts | 62° |
| 2026-05-08 15:36 | 38.39446 | -98.62916 | 36911 ft | 526 kts | 62° |
| 2026-05-08 15:37 | 38.42480 | -98.54425 | 36901 ft | 527 kts | 62° |
| 2026-05-08 15:37 | 38.45517 | -98.45903 | 36897 ft | 527 kts | 62° |
| 2026-05-08 15:38 | 38.48545 | -98.37381 | 36894 ft | 527 kts | 63° |
| 2026-05-08 15:38 | 38.51564 | -98.28860 | 36902 ft | 528 kts | 63° |
| 2026-05-08 15:39 | 38.54596 | -98.20280 | 36902 ft | 529 kts | 63° |
| 2026-05-08 15:39 | 38.57618 | -98.11698 | 36900 ft | 530 kts | 63° |
| 2026-05-08 15:40 | 38.60640 | -98.03095 | 36894 ft | 531 kts | 64° |
| 2026-05-08 15:40 | 38.63669 | -97.94446 | 36894 ft | 532 kts | 64° |
| 2026-05-08 15:41 | 38.66681 | -97.85820 | 36893 ft | 533 kts | 63° |
| 2026-05-08 15:41 | 38.69693 | -97.77168 | 36894 ft | 533 kts | 64° |
| 2026-05-08 15:42 | 38.72712 | -97.68471 | 36885 ft | 533 kts | 63° |
| 2026-05-08 15:42 | 38.75698 | -97.59842 | 36892 ft | 532 kts | 64° |
| 2026-05-08 15:43 | 38.78704 | -97.51129 | 36891 ft | 532 kts | 63° |
| 2026-05-08 15:43 | 38.81674 | -97.42497 | 36882 ft | 533 kts | 63° |
| 2026-05-08 15:44 | 38.84657 | -97.33800 | 36876 ft | 533 kts | 64° |
| 2026-05-08 15:44 | 38.87674 | -97.24977 | 36871 ft | 534 kts | 64° |
| 2026-05-08 15:45 | 38.90658 | -97.16225 | 36871 ft | 534 kts | 64° |
| 2026-05-08 15:45 | 38.93620 | -97.07510 | 36856 ft | 534 kts | 64° |
| 2026-05-08 15:46 | 38.96584 | -96.98764 | 36857 ft | 534 kts | 64° |
| 2026-05-08 15:46 | 38.99534 | -96.90033 | 36863 ft | 535 kts | 64° |
| 2026-05-08 15:47 | 39.02494 | -96.81245 | 36869 ft | 536 kts | 64° |
| 2026-05-08 15:47 | 39.05460 | -96.72412 | 36866 ft | 536 kts | 64° |
| 2026-05-08 15:48 | 39.09832 | -96.59344 | 36871 ft | 538 kts | 64° |
| 2026-05-08 15:49 | 39.12799 | -96.50438 | 36864 ft | 538 kts | 64° |
| 2026-05-08 15:49 | 39.15740 | -96.41582 | 36870 ft | 539 kts | 64° |
| 2026-05-08 15:50 | 39.18685 | -96.32689 | 36872 ft | 540 kts | 65° |
| 2026-05-08 15:50 | 39.21644 | -96.23723 | 36876 ft | 540 kts | 64° |
| 2026-05-08 15:51 | 39.24582 | -96.14795 | 36877 ft | 542 kts | 65° |
| 2026-05-08 15:51 | 39.27519 | -96.05843 | 36878 ft | 543 kts | 65° |
| 2026-05-08 15:52 | 39.30467 | -95.96825 | 36884 ft | 544 kts | 65° |
| 2026-05-08 15:52 | 39.33397 | -95.87835 | 36885 ft | 544 kts | 65° |
| 2026-05-08 15:53 | 39.36324 | -95.78825 | 36882 ft | 544 kts | 65° |
| 2026-05-08 15:53 | 39.39245 | -95.69805 | 36878 ft | 545 kts | 65° |
| 2026-05-08 15:54 | 39.42151 | -95.60802 | 36881 ft | 545 kts | 65° |
| 2026-05-08 15:54 | 39.44915 | -95.52215 | 36879 ft | 546 kts | 65° |